sensor_id;sensor_type;location;lat;lon;timestamp;P1;durP1;ratioP1;P2;durP2;ratioP2
79143;SDS011;68551;47.484;19.092;2023-03-19T00:00:08;14.25;;;9.73;;
79143;SDS011;68551;47.484;19.092;2023-03-19T00:03:14;14.55;;;10.45;;
79143;SDS011;68551;47.484;19.092;2023-03-19T00:06:19;17.85;;;10.18;;
79143;SDS011;68551;47.484;19.092;2023-03-19T00:09:22;17.23;;;10.82;;
79143;SDS011;68551;47.484;19.092;2023-03-19T00:12:25;15.57;;;10.52;;
79143;SDS011;68551;47.484;19.092;2023-03-19T00:15:30;15.55;;;10.73;;
79143;SDS011;68551;47.484;19.092;2023-03-19T00:18:33;15.68;;;10.45;;
79143;SDS011;68551;47.484;19.092;2023-03-19T00:21:35;16.90;;;11.35;;
79143;SDS011;68551;47.484;19.092;2023-03-19T00:24:39;14.00;;;9.18;;
79143;SDS011;68551;47.484;19.092;2023-03-19T00:27:46;17.75;;;10.20;;
79143;SDS011;68551;47.484;19.092;2023-03-19T00:30:49;13.10;;;9.65;;
79143;SDS011;68551;47.484;19.092;2023-03-19T00:33:55;14.77;;;9.68;;
79143;SDS011;68551;47.484;19.092;2023-03-19T00:36:59;15.18;;;9.85;;
79143;SDS011;68551;47.484;19.092;2023-03-19T00:40:01;16.38;;;10.48;;
79143;SDS011;68551;47.484;19.092;2023-03-19T00:43:07;16.52;;;9.95;;
79143;SDS011;68551;47.484;19.092;2023-03-19T00:46:14;14.55;;;9.90;;
79143;SDS011;68551;47.484;19.092;2023-03-19T00:49:21;15.15;;;10.15;;
79143;SDS011;68551;47.484;19.092;2023-03-19T00:52:24;15.65;;;9.75;;
79143;SDS011;68551;47.484;19.092;2023-03-19T00:55:26;16.65;;;9.65;;
79143;SDS011;68551;47.484;19.092;2023-03-19T00:58:31;17.27;;;10.50;;
79143;SDS011;68551;47.484;19.092;2023-03-19T01:01:38;15.45;;;10.73;;
79143;SDS011;68551;47.484;19.092;2023-03-19T01:04:47;15.32;;;9.77;;
79143;SDS011;68551;47.484;19.092;2023-03-19T01:07:54;16.25;;;9.95;;
79143;SDS011;68551;47.484;19.092;2023-03-19T01:11:08;15.65;;;9.27;;
79143;SDS011;68551;47.484;19.092;2023-03-19T01:14:14;13.65;;;8.77;;
79143;SDS011;68551;47.484;19.092;2023-03-19T01:17:21;14.45;;;9.85;;
79143;SDS011;68551;47.484;19.092;2023-03-19T01:20:31;14.10;;;9.23;;
79143;SDS011;68551;47.484;19.092;2023-03-19T01:23:39;15.25;;;9.38;;
79143;SDS011;68551;47.484;19.092;2023-03-19T01:26:44;14.77;;;9.13;;
79143;SDS011;68551;47.484;19.092;2023-03-19T01:30:08;15.43;;;9.00;;
79143;SDS011;68551;47.484;19.092;2023-03-19T01:33:30;12.93;;;9.30;;
79143;SDS011;68551;47.484;19.092;2023-03-19T01:36:35;13.65;;;8.85;;
79143;SDS011;68551;47.484;19.092;2023-03-19T01:39:39;13.57;;;8.95;;
79143;SDS011;68551;47.484;19.092;2023-03-19T01:46:25;15.98;;;9.50;;
79143;SDS011;68551;47.484;19.092;2023-03-19T01:49:52;14.63;;;9.10;;
79143;SDS011;68551;47.484;19.092;2023-03-19T01:52:56;13.65;;;9.00;;
79143;SDS011;68551;47.484;19.092;2023-03-19T01:56:20;14.65;;;8.43;;
79143;SDS011;68551;47.484;19.092;2023-03-19T01:59:37;13.00;;;8.43;;
79143;SDS011;68551;47.484;19.092;2023-03-19T02:02:45;14.15;;;8.70;;
79143;SDS011;68551;47.484;19.092;2023-03-19T02:06:28;14.32;;;8.68;;
79143;SDS011;68551;47.484;19.092;2023-03-19T02:09:34;11.35;;;7.80;;
79143;SDS011;68551;47.484;19.092;2023-03-19T02:12:38;14.18;;;8.43;;
79143;SDS011;68551;47.484;19.092;2023-03-19T02:15:45;13.23;;;8.40;;
79143;SDS011;68551;47.484;19.092;2023-03-19T02:18:50;11.55;;;8.20;;
79143;SDS011;68551;47.484;19.092;2023-03-19T02:21:55;13.68;;;8.25;;
79143;SDS011;68551;47.484;19.092;2023-03-19T02:25:03;14.18;;;8.65;;
79143;SDS011;68551;47.484;19.092;2023-03-19T02:28:09;13.15;;;8.43;;
79143;SDS011;68551;47.484;19.092;2023-03-19T02:31:13;14.57;;;8.77;;
79143;SDS011;68551;47.484;19.092;2023-03-19T02:37:25;13.45;;;8.27;;
79143;SDS011;68551;47.484;19.092;2023-03-19T02:40:35;13.50;;;8.05;;
79143;SDS011;68551;47.484;19.092;2023-03-19T02:43:44;14.15;;;8.05;;
79143;SDS011;68551;47.484;19.092;2023-03-19T02:46:50;14.32;;;8.93;;
79143;SDS011;68551;47.484;19.092;2023-03-19T02:49:57;14.15;;;7.68;;
79143;SDS011;68551;47.484;19.092;2023-03-19T02:52:59;15.02;;;8.52;;
79143;SDS011;68551;47.484;19.092;2023-03-19T02:56:02;12.85;;;8.15;;
79143;SDS011;68551;47.484;19.092;2023-03-19T02:59:04;13.07;;;9.15;;
79143;SDS011;68551;47.484;19.092;2023-03-19T03:02:07;11.15;;;8.40;;
79143;SDS011;68551;47.484;19.092;2023-03-19T03:05:11;11.38;;;8.60;;
79143;SDS011;68551;47.484;19.092;2023-03-19T03:08:16;12.93;;;7.85;;
79143;SDS011;68551;47.484;19.092;2023-03-19T03:11:24;11.75;;;7.72;;
79143;SDS011;68551;47.484;19.092;2023-03-19T03:14:29;13.80;;;7.28;;
79143;SDS011;68551;47.484;19.092;2023-03-19T03:17:37;10.68;;;7.22;;
79143;SDS011;68551;47.484;19.092;2023-03-19T03:20:43;16.30;;;7.50;;
79143;SDS011;68551;47.484;19.092;2023-03-19T03:23:48;12.13;;;7.93;;
79143;SDS011;68551;47.484;19.092;2023-03-19T03:26:53;12.63;;;6.80;;
79143;SDS011;68551;47.484;19.092;2023-03-19T03:29:57;11.85;;;7.38;;
79143;SDS011;68551;47.484;19.092;2023-03-19T03:33:00;10.70;;;7.38;;
79143;SDS011;68551;47.484;19.092;2023-03-19T03:36:05;11.80;;;7.25;;
79143;SDS011;68551;47.484;19.092;2023-03-19T03:39:07;13.35;;;7.60;;
79143;SDS011;68551;47.484;19.092;2023-03-19T03:42:10;11.13;;;7.13;;
79143;SDS011;68551;47.484;19.092;2023-03-19T03:45:15;13.50;;;7.40;;
79143;SDS011;68551;47.484;19.092;2023-03-19T03:48:19;13.43;;;7.70;;
79143;SDS011;68551;47.484;19.092;2023-03-19T03:51:26;11.05;;;7.15;;
79143;SDS011;68551;47.484;19.092;2023-03-19T03:54:29;13.30;;;7.65;;
79143;SDS011;68551;47.484;19.092;2023-03-19T03:57:34;14.88;;;8.18;;
79143;SDS011;68551;47.484;19.092;2023-03-19T04:00:39;14.73;;;8.63;;
79143;SDS011;68551;47.484;19.092;2023-03-19T04:03:46;15.93;;;8.55;;
79143;SDS011;68551;47.484;19.092;2023-03-19T04:06:51;12.63;;;7.22;;
79143;SDS011;68551;47.484;19.092;2023-03-19T04:10:06;14.25;;;7.80;;
79143;SDS011;68551;47.484;19.092;2023-03-19T04:13:12;9.90;;;7.13;;
79143;SDS011;68551;47.484;19.092;2023-03-19T04:16:15;12.85;;;7.53;;
79143;SDS011;68551;47.484;19.092;2023-03-19T04:19:19;10.82;;;7.47;;
79143;SDS011;68551;47.484;19.092;2023-03-19T04:22:24;16.35;;;7.57;;
79143;SDS011;68551;47.484;19.092;2023-03-19T04:25:30;10.48;;;6.68;;
79143;SDS011;68551;47.484;19.092;2023-03-19T04:28:33;11.13;;;7.50;;
79143;SDS011;68551;47.484;19.092;2023-03-19T04:31:38;8.73;;;6.38;;
79143;SDS011;68551;47.484;19.092;2023-03-19T04:34:43;9.88;;;6.28;;
79143;SDS011;68551;47.484;19.092;2023-03-19T04:37:47;10.90;;;7.32;;
79143;SDS011;68551;47.484;19.092;2023-03-19T04:40:55;12.40;;;7.18;;
79143;SDS011;68551;47.484;19.092;2023-03-19T04:43:58;10.48;;;7.57;;
79143;SDS011;68551;47.484;19.092;2023-03-19T04:47:02;11.15;;;6.82;;
79143;SDS011;68551;47.484;19.092;2023-03-19T04:50:15;10.93;;;6.80;;
79143;SDS011;68551;47.484;19.092;2023-03-19T04:53:20;11.45;;;6.15;;
79143;SDS011;68551;47.484;19.092;2023-03-19T04:56:25;9.70;;;6.80;;
79143;SDS011;68551;47.484;19.092;2023-03-19T04:59:32;8.73;;;6.30;;
79143;SDS011;68551;47.484;19.092;2023-03-19T05:02:41;10.80;;;7.43;;
79143;SDS011;68551;47.484;19.092;2023-03-19T05:05:44;14.10;;;6.70;;
79143;SDS011;68551;47.484;19.092;2023-03-19T05:08:48;16.08;;;7.32;;
79143;SDS011;68551;47.484;19.092;2023-03-19T05:11:53;10.68;;;6.40;;
79143;SDS011;68551;47.484;19.092;2023-03-19T05:14:56;11.32;;;6.75;;
79143;SDS011;68551;47.484;19.092;2023-03-19T05:18:09;11.60;;;6.45;;
79143;SDS011;68551;47.484;19.092;2023-03-19T05:21:21;9.77;;;6.43;;
79143;SDS011;68551;47.484;19.092;2023-03-19T05:24:28;12.70;;;7.07;;
79143;SDS011;68551;47.484;19.092;2023-03-19T05:27:34;13.07;;;7.07;;
79143;SDS011;68551;47.484;19.092;2023-03-19T05:30:42;11.75;;;6.10;;
79143;SDS011;68551;47.484;19.092;2023-03-19T05:33:58;10.52;;;6.43;;
79143;SDS011;68551;47.484;19.092;2023-03-19T05:37:05;8.85;;;6.05;;
79143;SDS011;68551;47.484;19.092;2023-03-19T05:40:09;10.60;;;5.60;;
79143;SDS011;68551;47.484;19.092;2023-03-19T05:43:18;9.02;;;6.22;;
79143;SDS011;68551;47.484;19.092;2023-03-19T05:46:24;10.77;;;5.97;;
79143;SDS011;68551;47.484;19.092;2023-03-19T05:49:26;10.38;;;6.18;;
79143;SDS011;68551;47.484;19.092;2023-03-19T05:52:33;11.38;;;6.05;;
79143;SDS011;68551;47.484;19.092;2023-03-19T05:55:39;9.85;;;5.75;;
79143;SDS011;68551;47.484;19.092;2023-03-19T05:58:44;12.43;;;6.13;;
79143;SDS011;68551;47.484;19.092;2023-03-19T06:01:51;9.27;;;5.95;;
79143;SDS011;68551;47.484;19.092;2023-03-19T06:04:56;11.73;;;6.65;;
79143;SDS011;68551;47.484;19.092;2023-03-19T06:08:05;9.60;;;5.85;;
79143;SDS011;68551;47.484;19.092;2023-03-19T06:11:44;11.30;;;6.30;;
79143;SDS011;68551;47.484;19.092;2023-03-19T06:15:05;10.95;;;6.40;;
79143;SDS011;68551;47.484;19.092;2023-03-19T06:21:20;8.52;;;5.63;;
79143;SDS011;68551;47.484;19.092;2023-03-19T06:24:22;8.90;;;5.90;;
79143;SDS011;68551;47.484;19.092;2023-03-19T06:27:27;8.73;;;6.03;;
79143;SDS011;68551;47.484;19.092;2023-03-19T06:30:40;7.60;;;5.05;;
79143;SDS011;68551;47.484;19.092;2023-03-19T06:34:17;8.32;;;5.80;;
79143;SDS011;68551;47.484;19.092;2023-03-19T06:37:20;7.65;;;4.90;;
79143;SDS011;68551;47.484;19.092;2023-03-19T06:40:25;8.65;;;5.10;;
79143;SDS011;68551;47.484;19.092;2023-03-19T06:43:33;7.03;;;5.05;;
79143;SDS011;68551;47.484;19.092;2023-03-19T06:46:38;8.55;;;5.22;;
79143;SDS011;68551;47.484;19.092;2023-03-19T06:49:40;10.30;;;5.10;;
79143;SDS011;68551;47.484;19.092;2023-03-19T06:52:44;7.70;;;5.30;;
79143;SDS011;68551;47.484;19.092;2023-03-19T06:55:46;9.65;;;5.22;;
79143;SDS011;68551;47.484;19.092;2023-03-19T06:58:49;7.75;;;5.32;;
79143;SDS011;68551;47.484;19.092;2023-03-19T07:01:51;8.25;;;5.38;;
79143;SDS011;68551;47.484;19.092;2023-03-19T07:04:58;7.13;;;5.00;;
79143;SDS011;68551;47.484;19.092;2023-03-19T07:08:06;8.55;;;5.22;;
79143;SDS011;68551;47.484;19.092;2023-03-19T07:11:15;8.00;;;4.90;;
79143;SDS011;68551;47.484;19.092;2023-03-19T07:14:17;6.65;;;4.88;;
79143;SDS011;68551;47.484;19.092;2023-03-19T07:17:24;8.98;;;5.03;;
79143;SDS011;68551;47.484;19.092;2023-03-19T07:20:27;8.98;;;5.10;;
79143;SDS011;68551;47.484;19.092;2023-03-19T07:23:29;8.45;;;5.03;;
79143;SDS011;68551;47.484;19.092;2023-03-19T07:26:34;7.70;;;5.20;;
79143;SDS011;68551;47.484;19.092;2023-03-19T07:29:36;8.57;;;4.68;;
79143;SDS011;68551;47.484;19.092;2023-03-19T07:32:39;7.72;;;4.53;;
79143;SDS011;68551;47.484;19.092;2023-03-19T07:35:41;7.32;;;4.60;;
79143;SDS011;68551;47.484;19.092;2023-03-19T07:38:49;6.55;;;5.03;;
79143;SDS011;68551;47.484;19.092;2023-03-19T07:41:51;7.05;;;4.30;;
79143;SDS011;68551;47.484;19.092;2023-03-19T07:44:57;7.90;;;4.60;;
79143;SDS011;68551;47.484;19.092;2023-03-19T07:51:05;7.03;;;4.72;;
79143;SDS011;68551;47.484;19.092;2023-03-19T07:54:10;8.50;;;4.78;;
79143;SDS011;68551;47.484;19.092;2023-03-19T07:57:12;6.70;;;4.90;;
79143;SDS011;68551;47.484;19.092;2023-03-19T08:00:17;7.07;;;4.93;;
79143;SDS011;68551;47.484;19.092;2023-03-19T08:06:24;8.52;;;4.50;;
79143;SDS011;68551;47.484;19.092;2023-03-19T08:09:27;5.70;;;4.70;;
79143;SDS011;68551;47.484;19.092;2023-03-19T08:12:34;7.38;;;5.00;;
79143;SDS011;68551;47.484;19.092;2023-03-19T08:15:44;5.45;;;3.97;;
79143;SDS011;68551;47.484;19.092;2023-03-19T08:18:48;6.30;;;4.70;;
79143;SDS011;68551;47.484;19.092;2023-03-19T08:21:53;6.18;;;3.95;;
79143;SDS011;68551;47.484;19.092;2023-03-19T08:24:55;6.47;;;4.40;;
79143;SDS011;68551;47.484;19.092;2023-03-19T08:27:58;6.93;;;4.38;;
79143;SDS011;68551;47.484;19.092;2023-03-19T08:31:09;6.65;;;4.45;;
79143;SDS011;68551;47.484;19.092;2023-03-19T08:34:15;7.07;;;4.63;;
79143;SDS011;68551;47.484;19.092;2023-03-19T08:37:20;5.72;;;3.85;;
79143;SDS011;68551;47.484;19.092;2023-03-19T08:40:22;6.70;;;4.50;;
79143;SDS011;68551;47.484;19.092;2023-03-19T08:43:25;6.25;;;5.10;;
79143;SDS011;68551;47.484;19.092;2023-03-19T08:46:34;7.95;;;4.43;;
79143;SDS011;68551;47.484;19.092;2023-03-19T08:49:39;5.80;;;4.40;;
79143;SDS011;68551;47.484;19.092;2023-03-19T08:52:41;6.80;;;4.38;;
79143;SDS011;68551;47.484;19.092;2023-03-19T08:55:44;5.90;;;4.63;;
79143;SDS011;68551;47.484;19.092;2023-03-19T08:58:51;7.22;;;5.20;;
79143;SDS011;68551;47.484;19.092;2023-03-19T09:01:54;6.25;;;5.13;;
79143;SDS011;68551;47.484;19.092;2023-03-19T09:04:56;5.90;;;4.85;;
79143;SDS011;68551;47.484;19.092;2023-03-19T09:07:58;6.03;;;5.03;;
79143;SDS011;68551;47.484;19.092;2023-03-19T09:11:01;6.75;;;5.00;;
79143;SDS011;68551;47.484;19.092;2023-03-19T09:14:04;7.40;;;5.03;;
79143;SDS011;68551;47.484;19.092;2023-03-19T09:17:06;6.38;;;4.43;;
79143;SDS011;68551;47.484;19.092;2023-03-19T09:20:11;5.50;;;4.38;;
79143;SDS011;68551;47.484;19.092;2023-03-19T09:23:19;9.13;;;4.75;;
79143;SDS011;68551;47.484;19.092;2023-03-19T09:26:24;6.35;;;5.20;;
79143;SDS011;68551;47.484;19.092;2023-03-19T09:29:31;6.15;;;4.07;;
79143;SDS011;68551;47.484;19.092;2023-03-19T09:32:36;5.80;;;4.28;;
79143;SDS011;68551;47.484;19.092;2023-03-19T09:35:38;7.38;;;5.13;;
79143;SDS011;68551;47.484;19.092;2023-03-19T09:38:43;5.43;;;4.70;;
79143;SDS011;68551;47.484;19.092;2023-03-19T09:41:54;6.68;;;4.95;;
79143;SDS011;68551;47.484;19.092;2023-03-19T09:45:08;6.85;;;5.15;;
79143;SDS011;68551;47.484;19.092;2023-03-19T09:48:19;5.90;;;4.70;;
79143;SDS011;68551;47.484;19.092;2023-03-19T09:51:54;7.32;;;4.72;;
79143;SDS011;68551;47.484;19.092;2023-03-19T09:55:05;8.20;;;5.45;;
79143;SDS011;68551;47.484;19.092;2023-03-19T09:58:24;7.05;;;4.93;;
79143;SDS011;68551;47.484;19.092;2023-03-19T10:01:36;5.28;;;4.22;;
79143;SDS011;68551;47.484;19.092;2023-03-19T10:08:13;10.00;;;5.28;;
79143;SDS011;68551;47.484;19.092;2023-03-19T10:15:03;8.60;;;5.60;;
79143;SDS011;68551;47.484;19.092;2023-03-19T10:18:18;6.78;;;4.82;;
79143;SDS011;68551;47.484;19.092;2023-03-19T10:24:35;6.30;;;4.72;;
79143;SDS011;68551;47.484;19.092;2023-03-19T10:27:41;5.85;;;4.78;;
79143;SDS011;68551;47.484;19.092;2023-03-19T10:30:54;6.22;;;4.70;;
79143;SDS011;68551;47.484;19.092;2023-03-19T10:37:25;5.70;;;4.82;;
79143;SDS011;68551;47.484;19.092;2023-03-19T10:40:32;7.93;;;5.22;;
79143;SDS011;68551;47.484;19.092;2023-03-19T10:43:46;6.60;;;5.30;;
79143;SDS011;68551;47.484;19.092;2023-03-19T10:47:07;7.43;;;5.15;;
79143;SDS011;68551;47.484;19.092;2023-03-19T10:50:19;8.50;;;5.38;;
79143;SDS011;68551;47.484;19.092;2023-03-19T10:53:35;6.95;;;5.07;;
79143;SDS011;68551;47.484;19.092;2023-03-19T10:56:40;8.15;;;4.70;;
79143;SDS011;68551;47.484;19.092;2023-03-19T10:59:48;8.30;;;5.50;;
79143;SDS011;68551;47.484;19.092;2023-03-19T11:02:53;8.25;;;4.43;;
79143;SDS011;68551;47.484;19.092;2023-03-19T11:15:36;7.60;;;5.35;;
79143;SDS011;68551;47.484;19.092;2023-03-19T11:18:39;9.23;;;4.78;;
79143;SDS011;68551;47.484;19.092;2023-03-19T11:24:56;6.75;;;4.45;;
79143;SDS011;68551;47.484;19.092;2023-03-19T11:28:06;7.32;;;4.20;;
79143;SDS011;68551;47.484;19.092;2023-03-19T11:34:44;6.07;;;4.30;;
79143;SDS011;68551;47.484;19.092;2023-03-19T11:37:55;6.43;;;4.07;;
79143;SDS011;68551;47.484;19.092;2023-03-19T11:41:21;7.70;;;4.60;;
79143;SDS011;68551;47.484;19.092;2023-03-19T11:47:53;7.68;;;4.47;;
79143;SDS011;68551;47.484;19.092;2023-03-19T12:08:32;6.80;;;4.05;;
79143;SDS011;68551;47.484;19.092;2023-03-19T12:35:15;5.40;;;3.38;;
79143;SDS011;68551;47.484;19.092;2023-03-19T12:41:49;5.85;;;3.38;;
79143;SDS011;68551;47.484;19.092;2023-03-19T12:44:55;6.13;;;3.75;;
79143;SDS011;68551;47.484;19.092;2023-03-19T12:48:03;6.05;;;4.45;;
79143;SDS011;68551;47.484;19.092;2023-03-19T12:51:11;7.03;;;4.20;;
79143;SDS011;68551;47.484;19.092;2023-03-19T12:54:17;6.15;;;3.75;;
79143;SDS011;68551;47.484;19.092;2023-03-19T13:03:42;4.90;;;3.65;;
79143;SDS011;68551;47.484;19.092;2023-03-19T13:07:20;6.43;;;4.13;;
79143;SDS011;68551;47.484;19.092;2023-03-19T13:10:29;6.40;;;4.47;;
79143;SDS011;68551;47.484;19.092;2023-03-19T13:20:26;4.28;;;3.50;;
79143;SDS011;68551;47.484;19.092;2023-03-19T13:23:35;5.57;;;3.53;;
79143;SDS011;68551;47.484;19.092;2023-03-19T13:26:42;6.65;;;3.97;;
79143;SDS011;68551;47.484;19.092;2023-03-19T13:30:31;5.68;;;3.70;;
79143;SDS011;68551;47.484;19.092;2023-03-19T13:33:17;6.32;;;3.88;;
79143;SDS011;68551;47.484;19.092;2023-03-19T13:36:26;5.60;;;3.88;;
79143;SDS011;68551;47.484;19.092;2023-03-19T13:39:33;8.02;;;4.38;;
79143;SDS011;68551;47.484;19.092;2023-03-19T13:42:40;5.72;;;4.55;;
79143;SDS011;68551;47.484;19.092;2023-03-19T13:53:39;6.13;;;4.22;;
79143;SDS011;68551;47.484;19.092;2023-03-19T14:07:09;6.90;;;3.75;;
79143;SDS011;68551;47.484;19.092;2023-03-19T14:10:15;5.75;;;3.90;;
79143;SDS011;68551;47.484;19.092;2023-03-19T14:13:33;4.85;;;3.50;;
79143;SDS011;68551;47.484;19.092;2023-03-19T14:16:42;6.45;;;3.92;;
79143;SDS011;68551;47.484;19.092;2023-03-19T14:19:49;5.38;;;3.67;;
79143;SDS011;68551;47.484;19.092;2023-03-19T14:23:01;6.85;;;3.80;;
79143;SDS011;68551;47.484;19.092;2023-03-19T14:26:19;6.05;;;3.67;;
79143;SDS011;68551;47.484;19.092;2023-03-19T14:29:24;6.63;;;4.00;;
79143;SDS011;68551;47.484;19.092;2023-03-19T14:32:33;6.28;;;3.53;;
79143;SDS011;68551;47.484;19.092;2023-03-19T14:35:43;6.28;;;4.60;;
79143;SDS011;68551;47.484;19.092;2023-03-19T14:38:50;5.13;;;3.67;;
79143;SDS011;68551;47.484;19.092;2023-03-19T14:41:58;6.05;;;3.90;;
79143;SDS011;68551;47.484;19.092;2023-03-19T14:52:43;5.90;;;4.32;;
79143;SDS011;68551;47.484;19.092;2023-03-19T14:55:55;5.88;;;4.03;;
79143;SDS011;68551;47.484;19.092;2023-03-19T14:59:03;6.32;;;4.45;;
79143;SDS011;68551;47.484;19.092;2023-03-19T15:05:46;8.45;;;4.47;;
79143;SDS011;68551;47.484;19.092;2023-03-19T15:08:59;5.65;;;4.00;;
79143;SDS011;68551;47.484;19.092;2023-03-19T15:19:10;5.20;;;3.95;;
79143;SDS011;68551;47.484;19.092;2023-03-19T15:22:20;6.18;;;4.22;;
79143;SDS011;68551;47.484;19.092;2023-03-19T15:25:25;5.95;;;4.07;;
79143;SDS011;68551;47.484;19.092;2023-03-19T15:28:32;5.97;;;4.35;;
79143;SDS011;68551;47.484;19.092;2023-03-19T15:31:47;8.55;;;4.55;;
79143;SDS011;68551;47.484;19.092;2023-03-19T15:35:05;5.55;;;3.80;;
79143;SDS011;68551;47.484;19.092;2023-03-19T15:38:09;5.88;;;4.35;;
79143;SDS011;68551;47.484;19.092;2023-03-19T15:41:14;6.10;;;4.40;;
79143;SDS011;68551;47.484;19.092;2023-03-19T15:44:27;10.15;;;5.70;;
79143;SDS011;68551;47.484;19.092;2023-03-19T15:47:32;9.20;;;5.15;;
79143;SDS011;68551;47.484;19.092;2023-03-19T15:50:40;6.75;;;4.45;;
79143;SDS011;68551;47.484;19.092;2023-03-19T15:53:51;6.68;;;4.47;;
79143;SDS011;68551;47.484;19.092;2023-03-19T15:56:54;6.28;;;4.28;;
79143;SDS011;68551;47.484;19.092;2023-03-19T15:59:59;6.03;;;4.43;;
79143;SDS011;68551;47.484;19.092;2023-03-19T16:03:19;7.65;;;4.70;;
79143;SDS011;68551;47.484;19.092;2023-03-19T16:06:38;8.85;;;5.18;;
79143;SDS011;68551;47.484;19.092;2023-03-19T16:09:44;12.20;;;5.38;;
79143;SDS011;68551;47.484;19.092;2023-03-19T16:12:52;10.13;;;5.38;;
79143;SDS011;68551;47.484;19.092;2023-03-19T16:19:22;7.40;;;4.93;;
79143;SDS011;68551;47.484;19.092;2023-03-19T16:22:37;8.85;;;5.50;;
79143;SDS011;68551;47.484;19.092;2023-03-19T16:25:39;7.13;;;5.47;;
79143;SDS011;68551;47.484;19.092;2023-03-19T16:28:46;9.57;;;5.07;;
79143;SDS011;68551;47.484;19.092;2023-03-19T16:32:03;9.27;;;5.60;;
79143;SDS011;68551;47.484;19.092;2023-03-19T16:35:12;8.27;;;6.28;;
79143;SDS011;68551;47.484;19.092;2023-03-19T16:38:26;9.93;;;5.80;;
79143;SDS011;68551;47.484;19.092;2023-03-19T16:41:43;7.38;;;5.10;;
79143;SDS011;68551;47.484;19.092;2023-03-19T16:44:46;7.05;;;5.00;;
79143;SDS011;68551;47.484;19.092;2023-03-19T16:47:54;6.68;;;4.53;;
79143;SDS011;68551;47.484;19.092;2023-03-19T16:51:16;8.60;;;5.63;;
79143;SDS011;68551;47.484;19.092;2023-03-19T16:54:24;6.90;;;5.20;;
79143;SDS011;68551;47.484;19.092;2023-03-19T16:57:27;8.82;;;5.10;;
79143;SDS011;68551;47.484;19.092;2023-03-19T17:00:37;6.85;;;4.93;;
79143;SDS011;68551;47.484;19.092;2023-03-19T17:03:46;13.27;;;6.68;;
79143;SDS011;68551;47.484;19.092;2023-03-19T17:06:49;8.93;;;5.10;;
79143;SDS011;68551;47.484;19.092;2023-03-19T17:09:54;8.05;;;4.75;;
79143;SDS011;68551;47.484;19.092;2023-03-19T17:12:59;7.93;;;4.68;;
79143;SDS011;68551;47.484;19.092;2023-03-19T17:16:03;9.05;;;5.10;;
79143;SDS011;68551;47.484;19.092;2023-03-19T17:19:20;8.13;;;5.60;;
79143;SDS011;68551;47.484;19.092;2023-03-19T17:22:29;8.15;;;4.82;;
79143;SDS011;68551;47.484;19.092;2023-03-19T17:25:32;9.25;;;4.95;;
79143;SDS011;68551;47.484;19.092;2023-03-19T17:28:34;8.60;;;5.18;;
79143;SDS011;68551;47.484;19.092;2023-03-19T17:31:38;9.05;;;5.35;;
79143;SDS011;68551;47.484;19.092;2023-03-19T17:34:40;6.90;;;4.88;;
79143;SDS011;68551;47.484;19.092;2023-03-19T17:37:43;6.75;;;4.57;;
79143;SDS011;68551;47.484;19.092;2023-03-19T17:40:49;8.18;;;4.75;;
79143;SDS011;68551;47.484;19.092;2023-03-19T17:43:51;5.93;;;4.35;;
79143;SDS011;68551;47.484;19.092;2023-03-19T17:46:58;7.68;;;4.57;;
79143;SDS011;68551;47.484;19.092;2023-03-19T17:50:00;6.95;;;5.05;;
79143;SDS011;68551;47.484;19.092;2023-03-19T17:53:04;7.85;;;4.95;;
79143;SDS011;68551;47.484;19.092;2023-03-19T17:56:08;6.85;;;4.97;;
79143;SDS011;68551;47.484;19.092;2023-03-19T17:59:23;10.30;;;5.25;;
79143;SDS011;68551;47.484;19.092;2023-03-19T18:02:28;7.75;;;6.57;;
79143;SDS011;68551;47.484;19.092;2023-03-19T18:05:36;8.90;;;5.60;;
79143;SDS011;68551;47.484;19.092;2023-03-19T18:08:40;9.85;;;6.05;;
79143;SDS011;68551;47.484;19.092;2023-03-19T18:11:43;9.13;;;5.75;;
79143;SDS011;68551;47.484;19.092;2023-03-19T18:14:45;8.07;;;6.35;;
79143;SDS011;68551;47.484;19.092;2023-03-19T18:17:51;10.48;;;6.13;;
79143;SDS011;68551;47.484;19.092;2023-03-19T18:20:57;9.77;;;6.13;;
79143;SDS011;68551;47.484;19.092;2023-03-19T18:24:02;9.07;;;6.00;;
79143;SDS011;68551;47.484;19.092;2023-03-19T18:27:08;9.90;;;6.03;;
79143;SDS011;68551;47.484;19.092;2023-03-19T18:30:14;10.25;;;6.40;;
79143;SDS011;68551;47.484;19.092;2023-03-19T18:33:21;15.95;;;7.47;;
79143;SDS011;68551;47.484;19.092;2023-03-19T18:36:28;11.68;;;6.35;;
79143;SDS011;68551;47.484;19.092;2023-03-19T18:39:32;13.20;;;6.90;;
79143;SDS011;68551;47.484;19.092;2023-03-19T18:42:41;11.30;;;6.75;;
79143;SDS011;68551;47.484;19.092;2023-03-19T18:45:47;11.38;;;6.78;;
79143;SDS011;68551;47.484;19.092;2023-03-19T18:48:58;9.43;;;6.28;;
79143;SDS011;68551;47.484;19.092;2023-03-19T18:52:02;10.07;;;6.75;;
79143;SDS011;68551;47.484;19.092;2023-03-19T18:55:06;11.88;;;7.50;;
79143;SDS011;68551;47.484;19.092;2023-03-19T18:58:20;11.07;;;6.50;;
79143;SDS011;68551;47.484;19.092;2023-03-19T19:01:26;9.73;;;6.20;;
79143;SDS011;68551;47.484;19.092;2023-03-19T19:04:31;13.20;;;7.75;;
79143;SDS011;68551;47.484;19.092;2023-03-19T19:07:33;13.20;;;7.38;;
79143;SDS011;68551;47.484;19.092;2023-03-19T19:10:36;12.02;;;8.43;;
79143;SDS011;68551;47.484;19.092;2023-03-19T19:13:49;14.18;;;8.05;;
79143;SDS011;68551;47.484;19.092;2023-03-19T19:16:57;11.57;;;7.20;;
79143;SDS011;68551;47.484;19.092;2023-03-19T19:20:01;12.27;;;7.60;;
79143;SDS011;68551;47.484;19.092;2023-03-19T19:23:05;15.00;;;8.57;;
79143;SDS011;68551;47.484;19.092;2023-03-19T19:26:15;13.00;;;8.07;;
79143;SDS011;68551;47.484;19.092;2023-03-19T19:29:27;14.82;;;7.80;;
79143;SDS011;68551;47.484;19.092;2023-03-19T19:32:32;11.35;;;7.25;;
79143;SDS011;68551;47.484;19.092;2023-03-19T19:35:37;12.48;;;7.45;;
79143;SDS011;68551;47.484;19.092;2023-03-19T19:38:39;13.68;;;7.88;;
79143;SDS011;68551;47.484;19.092;2023-03-19T19:41:44;15.27;;;9.13;;
79143;SDS011;68551;47.484;19.092;2023-03-19T19:44:50;15.93;;;9.20;;
79143;SDS011;68551;47.484;19.092;2023-03-19T19:47:58;16.60;;;8.90;;
79143;SDS011;68551;47.484;19.092;2023-03-19T19:51:03;14.25;;;8.63;;
79143;SDS011;68551;47.484;19.092;2023-03-19T19:54:11;15.45;;;9.23;;
79143;SDS011;68551;47.484;19.092;2023-03-19T20:00:27;15.90;;;8.90;;
79143;SDS011;68551;47.484;19.092;2023-03-19T20:03:31;14.93;;;8.65;;
79143;SDS011;68551;47.484;19.092;2023-03-19T20:06:35;13.68;;;8.70;;
79143;SDS011;68551;47.484;19.092;2023-03-19T20:09:37;16.83;;;8.68;;
79143;SDS011;68551;47.484;19.092;2023-03-19T20:12:40;13.00;;;7.95;;
79143;SDS011;68551;47.484;19.092;2023-03-19T20:15:45;15.02;;;8.52;;
79143;SDS011;68551;47.484;19.092;2023-03-19T20:18:48;12.13;;;8.05;;
79143;SDS011;68551;47.484;19.092;2023-03-19T20:21:54;15.77;;;8.38;;
79143;SDS011;68551;47.484;19.092;2023-03-19T20:24:57;13.63;;;8.95;;
79143;SDS011;68551;47.484;19.092;2023-03-19T20:28:02;14.15;;;8.95;;
79143;SDS011;68551;47.484;19.092;2023-03-19T20:31:16;14.40;;;9.50;;
79143;SDS011;68551;47.484;19.092;2023-03-19T20:34:25;15.05;;;9.35;;
79143;SDS011;68551;47.484;19.092;2023-03-19T20:37:40;11.98;;;7.40;;
79143;SDS011;68551;47.484;19.092;2023-03-19T20:40:44;11.63;;;7.93;;
79143;SDS011;68551;47.484;19.092;2023-03-19T20:43:51;11.70;;;7.30;;
79143;SDS011;68551;47.484;19.092;2023-03-19T20:49:59;14.38;;;8.27;;
79143;SDS011;68551;47.484;19.092;2023-03-19T20:53:04;10.85;;;8.23;;
79143;SDS011;68551;47.484;19.092;2023-03-19T20:56:13;12.30;;;7.97;;